Mandalay, Burma
Current Conditions -  °F | °C
As of 1:30 PM on Friday 24 Oct 2014 (Local Time) from VYMD Reporting Station
Few Clouds Few Clouds  
Wind Chill: 91°   Ceiling: Unl
Heat Index: 102°   Visibility: 5mi
Dew Point: 75°   Wind: 2mph
Humidity: 59%   Direction: 320°NW
Pressure: 29.83"   Gusts: NA
Location:  21.98°N, 96.09°E
Report Text: VYMD 240730Z 32002KT 8000 FEW035CB 33/24 Q1010
Loading
Personal Weather Stations






























Interactive Weather Map
Tropical Storm Tracking
New forecast layout! Learn more

10-Day Weather Forecast

Advertisements
Track Severe Weather on mobile